createdAt,value
2023-05-19T00:01:20.591Z,97774.81
2023-05-19T00:03:57.955Z,97775.66
2023-05-19T00:06:27.863Z,97776.66
2023-05-19T00:08:59.151Z,97767.00
2023-05-19T00:11:27.534Z,97763.69
2023-05-19T00:13:56.589Z,97759.38
2023-05-19T00:16:25.584Z,97763.69
2023-05-19T00:18:53.603Z,97761.19
2023-05-19T00:21:21.177Z,97763.84
2023-05-19T00:23:48.166Z,97750.69
2023-05-19T00:26:15.791Z,97754.34
2023-05-19T00:28:42.616Z,97743.88
2023-05-19T00:31:09.506Z,97750.69
2023-05-19T00:33:36.314Z,97754.34
2023-05-19T00:36:04.318Z,97758.00
2023-05-19T00:38:32.232Z,97752.81
2023-05-19T00:40:59.938Z,97756.47
2023-05-19T00:43:26.983Z,97750.31
2023-05-19T00:45:53.949Z,97744.16
2023-05-19T00:48:21.342Z,97741.50
2023-05-19T00:50:49.358Z,97746.97
2023-05-19T00:53:18.452Z,97741.94
2023-05-19T00:55:46.558Z,97741.94
2023-05-19T00:58:14.789Z,97741.94
2023-05-19T01:00:42.933Z,97733.97
2023-05-19T01:03:13.396Z,97737.47
2023-05-19T01:05:53.920Z,97727.97
2023-05-19T01:08:20.858Z,97725.31
2023-05-19T01:10:47.708Z,97726.16
2023-05-19T01:13:15.238Z,97724.34
2023-05-19T01:16:20.733Z,97725.31
2023-05-19T01:19:03.040Z,97721.00
2023-05-19T01:22:13.479Z,97729.94
2023-05-19T01:25:20.582Z,97721.97
2023-05-19T01:27:54.552Z,97728.28
2023-05-19T01:30:28.987Z,97729.25
2023-05-19T01:33:00.393Z,97727.44
2023-05-19T01:35:28.815Z,97717.94
2023-05-19T01:37:58.888Z,97717.94
2023-05-19T01:40:28.143Z,97721.59
2023-05-19T01:42:57.941Z,97720.75
2023-05-19T01:45:26.397Z,97718.94
2023-05-19T01:47:58.288Z,97721.75
2023-05-19T01:50:26.041Z,97717.41
2023-05-19T01:52:53.051Z,97715.75
2023-05-19T01:55:20.119Z,97716.56
2023-05-19T01:58:01.489Z,97719.38
2023-05-19T02:00:36.741Z,97707.91
2023-05-19T02:03:14.879Z,97708.06
2023-05-19T02:06:27.040Z,97716.03
2023-05-19T02:09:08.031Z,97714.38
2023-05-19T02:11:38.336Z,97709.88
2023-05-19T02:14:15.950Z,97712.69
2023-05-19T02:16:46.512Z,97719.81
2023-05-19T02:19:21.823Z,97714.66
2023-05-19T02:21:48.647Z,97707.53
2023-05-19T02:24:17.040Z,97712.84
2023-05-19T02:26:44.275Z,97713.00
2023-05-19T02:29:11.242Z,97721.94
2023-05-19T02:31:38.542Z,97714.94
2023-05-19T02:34:05.415Z,97717.75
2023-05-19T02:36:35.511Z,97718.59
2023-05-19T02:39:03.598Z,97708.94
2023-05-19T02:41:31.773Z,97711.59
2023-05-19T02:43:58.690Z,97710.78
2023-05-19T02:46:25.728Z,97709.09
2023-05-19T02:48:53.346Z,97711.59
2023-05-19T02:51:20.193Z,97701.28
2023-05-19T02:53:47.081Z,97702.94
2023-05-19T02:56:13.925Z,97691.78
2023-05-19T02:58:43.335Z,97698.78
2023-05-19T03:01:10.374Z,97697.09
2023-05-19T03:03:37.339Z,97693.75
2023-05-19T03:06:05.259Z,97684.97
2023-05-19T03:08:32.080Z,97693.75
2023-05-19T03:10:58.894Z,97684.13
2023-05-19T03:13:25.743Z,97683.44
2023-05-19T03:15:53.390Z,97687.91
2023-05-19T03:18:20.312Z,97686.09
2023-05-19T03:20:47.289Z,97687.06
2023-05-19T03:23:14.090Z,97680.94
2023-05-19T03:25:40.937Z,97686.38
2023-05-19T03:28:07.773Z,97696.03
2023-05-19T03:30:34.753Z,97683.72
2023-05-19T03:33:01.941Z,97688.06
2023-05-19T03:35:29.328Z,97698.81
2023-05-19T03:37:56.126Z,97689.03
2023-05-19T03:40:23.051Z,97686.53
2023-05-19T03:42:49.924Z,97701.47
2023-05-19T03:45:16.779Z,97704.13
2023-05-19T03:47:43.685Z,97706.94
2023-05-19T03:50:10.810Z,97697.44
2023-05-19T03:52:38.869Z,97691.84
2023-05-19T03:55:07.347Z,97692.00
2023-05-19T03:57:34.193Z,97698.28
2023-05-19T04:00:01.034Z,97701.91
2023-05-19T04:02:27.977Z,97697.59
2023-05-19T04:04:55.037Z,97698.56
2023-05-19T04:07:22.071Z,97701.38
2023-05-19T04:09:49.941Z,97699.41
2023-05-19T04:12:16.846Z,97699.69
2023-05-19T04:14:43.688Z,97690.06
2023-05-19T04:17:10.657Z,97689.09
2023-05-19T04:19:42.194Z,97689.91
2023-05-19T04:22:09.645Z,97688.94
2023-05-19T04:24:36.663Z,97698.88
2023-05-19T04:27:05.114Z,97692.72
2023-05-19T04:29:34.333Z,97700.69
2023-05-19T04:32:01.502Z,97700.69
2023-05-19T04:34:29.272Z,97690.06
2023-05-19T04:36:58.811Z,97696.22
2023-05-19T04:39:26.656Z,97702.50
2023-05-19T04:41:55.474Z,97692.88
2023-05-19T04:44:22.370Z,97699.84
2023-05-19T04:46:58.592Z,97697.19
2023-05-19T04:49:28.177Z,97699.16
2023-05-19T04:52:01.685Z,97700.16
2023-05-19T04:54:29.744Z,97700.16
2023-05-19T04:56:56.651Z,97702.78
2023-05-19T04:59:23.671Z,97689.53
2023-05-19T05:01:51.553Z,97694.84
2023-05-19T05:04:20.211Z,97689.53
2023-05-19T05:06:49.184Z,97681.56
2023-05-19T05:09:17.054Z,97679.75
2023-05-19T05:11:54.045Z,97678.91
2023-05-19T05:14:22.320Z,97681.56
2023-05-19T05:16:50.214Z,97678.22
2023-05-19T05:19:17.520Z,97671.22
2023-05-19T05:21:44.640Z,97677.22
2023-05-19T05:24:14.595Z,97669.28
2023-05-19T05:26:45.522Z,97678.91
2023-05-19T05:29:14.829Z,97671.22
2023-05-19T05:31:41.697Z,97678.06
2023-05-19T05:34:08.619Z,97671.94
2023-05-19T05:36:35.517Z,97663.97
2023-05-19T05:39:02.848Z,97673.44
2023-05-19T05:41:35.717Z,97673.59
2023-05-19T05:44:05.849Z,97683.38
2023-05-19T05:46:33.269Z,97681.56
2023-05-19T05:49:00.412Z,97677.78
2023-05-19T05:51:27.540Z,97681.41
2023-05-19T05:53:55.446Z,97687.72
2023-05-19T05:56:25.672Z,97687.72
2023-05-19T05:58:54.042Z,97686.56
2023-05-19T06:01:21.210Z,97690.22
2023-05-19T06:03:48.145Z,97689.38
2023-05-19T06:06:19.801Z,97688.41
2023-05-19T06:08:52.673Z,97690.22
2023-05-19T06:11:26.430Z,97687.41
2023-05-19T06:13:53.239Z,97673.16
2023-05-19T06:16:20.858Z,97671.19
2023-05-19T06:18:47.898Z,97665.03
2023-05-19T06:21:17.821Z,97671.19
2023-05-19T06:23:44.715Z,97666.72
2023-05-19T06:26:11.754Z,97673.84
2023-05-19T06:28:38.728Z,97666.72
2023-05-19T06:31:06.337Z,97670.22
2023-05-19T06:33:34.985Z,97670.91
2023-05-19T06:36:02.563Z,97677.88
2023-05-19T06:38:29.392Z,97677.72
2023-05-19T06:40:56.443Z,97681.22
2023-05-19T06:43:23.313Z,97685.41
2023-05-19T06:45:51.600Z,97687.22
2023-05-19T06:48:23.875Z,97677.00
2023-05-19T06:50:51.996Z,97675.47
2023-05-19T06:53:20.236Z,97681.31
2023-05-19T06:55:58.794Z,97686.63
2023-05-19T06:58:27.701Z,97688.16
2023-05-19T07:00:54.931Z,97687.16
2023-05-19T07:03:23.196Z,97692.34
2023-05-19T07:06:04.528Z,97691.50
2023-05-19T07:08:39.581Z,97690.81
2023-05-19T07:11:14.429Z,97688.00
2023-05-19T07:13:44.693Z,97685.19
2023-05-19T07:16:11.749Z,97687.03
2023-05-19T07:18:38.658Z,97694.84
2023-05-19T07:21:11.968Z,97692.88
2023-05-19T07:23:42.560Z,97682.94
2023-05-19T07:26:11.091Z,97687.25
2023-05-19T07:28:40.702Z,97686.13
2023-05-19T07:31:08.623Z,97676.19
2023-05-19T07:33:37.507Z,97681.34
2023-05-19T07:36:09.897Z,97675.06
2023-05-19T07:38:38.248Z,97678.56
2023-05-19T07:41:05.125Z,97668.91
2023-05-19T07:43:32.076Z,97671.41
2023-05-19T07:46:06.315Z,97664.28
2023-05-19T07:48:33.452Z,97674.06
2023-05-19T07:51:00.640Z,97665.94
2023-05-19T07:53:28.312Z,97663.28
2023-05-19T07:56:06.395Z,97667.78
2023-05-19T07:58:33.801Z,97663.44
2023-05-19T08:01:00.949Z,97665.13
2023-05-19T08:03:28.148Z,97671.41
2023-05-19T08:06:06.502Z,97668.75
2023-05-19T08:11:41.721Z,97674.53
2023-05-19T08:14:13.318Z,97671.72
2023-05-19T08:16:47.486Z,97675.34
2023-05-19T08:19:15.990Z,97675.34
2023-05-19T08:21:42.933Z,97674.38
2023-05-19T08:24:09.762Z,97674.38
2023-05-19T08:26:37.859Z,97681.22
2023-05-19T08:29:05.056Z,97675.06
2023-05-19T08:31:32.131Z,97679.69
2023-05-19T08:33:59.831Z,97677.19
2023-05-19T08:36:29.036Z,97671.03
2023-05-19T08:38:55.870Z,97670.50
2023-05-19T08:41:23.611Z,97671.31
2023-05-19T08:43:52.804Z,97665.72
2023-05-19T08:46:25.202Z,97668.06
2023-05-19T08:48:58.965Z,97657.44
2023-05-19T08:51:55.787Z,97661.94
2023-05-19T08:54:29.580Z,97651.16
2023-05-19T08:57:06.546Z,97654.50
2023-05-19T08:59:48.769Z,97659.50
2023-05-19T09:02:16.864Z,97655.88
2023-05-19T09:04:46.376Z,97644.09
2023-05-19T09:07:15.278Z,97652.06
2023-05-19T09:09:45.061Z,97651.25
2023-05-19T09:12:15.617Z,97650.41
2023-05-19T09:14:42.821Z,97646.91
2023-05-19T09:17:10.068Z,97637.41
2023-05-19T09:19:43.387Z,97650.16
2023-05-19T09:22:10.260Z,97639.53
2023-05-19T09:24:38.738Z,97643.13
2023-05-19T09:27:10.679Z,97643.94
2023-05-19T09:29:41.780Z,97637.94
2023-05-19T09:32:12.786Z,97647.44
2023-05-19T09:34:42.679Z,97645.69
2023-05-19T09:37:14.585Z,97643.72
2023-05-19T09:39:50.085Z,97643.44
2023-05-19T09:42:29.064Z,97644.72
2023-05-19T09:45:02.142Z,97648.34
2023-05-19T09:47:38.342Z,97631.28
2023-05-19T09:50:08.762Z,97621.34
2023-05-19T09:52:39.676Z,97629.84
2023-05-19T09:55:15.530Z,97617.84
2023-05-19T09:57:45.958Z,97621.50
2023-05-19T10:00:18.313Z,97618.69
2023-05-19T10:02:47.670Z,97627.47
2023-05-19T10:05:23.104Z,97619.84
2023-05-19T10:07:55.828Z,97619.03
2023-05-19T10:10:27.231Z,97622.53
2023-05-19T10:12:57.637Z,97612.88
2023-05-19T10:15:34.458Z,97615.22
2023-05-19T10:18:04.409Z,97611.72
2023-05-19T10:20:31.888Z,97603.09
2023-05-19T10:22:58.931Z,97601.25
2023-05-19T10:25:27.731Z,97604.28
2023-05-19T10:28:06.745Z,97599.66
2023-05-19T10:30:37.491Z,97595.84
2023-05-19T10:33:08.028Z,97594.03
2023-05-19T10:36:02.955Z,97591.22
2023-05-19T10:38:58.588Z,97595.09
2023-05-19T10:41:47.235Z,97588.19
2023-05-19T10:44:23.422Z,97589.09
2023-05-19T10:46:50.956Z,97587.78
2023-05-19T10:49:24.275Z,97588.16
2023-05-19T10:51:52.749Z,97587.00
2023-05-19T10:54:42.362Z,97582.38
2023-05-19T10:57:20.629Z,97590.19
2023-05-19T10:59:54.890Z,97585.88
2023-05-19T11:02:42.818Z,97588.06
2023-05-19T11:05:13.142Z,97574.06
2023-05-19T11:07:43.045Z,97581.53
2023-05-19T11:10:10.316Z,97583.16
2023-05-19T11:12:49.040Z,97587.63
2023-05-19T11:15:17.485Z,97579.50
2023-05-19T11:17:49.686Z,97579.66
2023-05-19T11:20:29.271Z,97582.00
2023-05-19T11:23:09.380Z,97574.69
2023-05-19T11:25:47.636Z,97574.03
2023-05-19T11:28:29.888Z,97576.69
2023-05-19T11:31:01.448Z,97571.06
2023-05-19T11:33:29.721Z,97574.38
2023-05-19T11:35:58.780Z,97565.25
2023-05-19T11:38:26.998Z,97561.47
2023-05-19T11:40:54.408Z,97569.47
2023-05-19T11:43:30.733Z,97565.53
2023-05-19T11:45:58.679Z,97565.19
2023-05-19T11:48:26.653Z,97554.91
2023-05-19T11:50:53.794Z,97560.72
2023-05-19T11:53:22.692Z,97562.91
2023-05-19T11:55:54.969Z,97559.63
2023-05-19T11:58:27.062Z,97555.63
2023-05-19T12:00:54.441Z,97550.47
2023-05-19T12:03:23.173Z,97551.50
2023-05-19T12:05:51.910Z,97556.63
2023-05-19T12:08:32.727Z,97550.63
2023-05-19T12:10:59.768Z,97546.16
2023-05-19T12:13:27.647Z,97543.00
2023-05-19T12:15:59.940Z,97542.34
2023-05-19T12:18:34.983Z,97546.34
2023-05-19T12:21:05.217Z,97542.34
2023-05-19T12:23:32.954Z,97540.88
2023-05-19T12:26:01.216Z,97541.44
2023-05-19T12:28:31.567Z,97538.38
2023-05-19T12:31:01.545Z,97537.56
2023-05-19T12:33:28.622Z,97536.72
2023-05-19T12:35:56.517Z,97544.88
2023-05-19T12:38:23.472Z,97528.41
2023-05-19T12:40:53.025Z,97532.97
2023-05-19T12:43:24.110Z,97535.13
2023-05-19T12:45:52.648Z,97529.78
2023-05-19T12:48:22.921Z,97533.13
2023-05-19T12:50:56.047Z,97528.47
2023-05-19T12:53:28.844Z,97516.16
2023-05-19T12:55:56.535Z,97522.63
2023-05-19T12:58:24.509Z,97528.13
2023-05-19T13:01:01.567Z,97519.16
2023-05-19T13:03:28.954Z,97520.00
2023-05-19T13:05:55.866Z,97518.66
2023-05-19T13:08:24.286Z,97520.16
2023-05-19T13:10:56.606Z,97515.16
2023-05-19T13:13:24.805Z,97515.47
2023-05-19T13:15:51.797Z,97517.75
2023-05-19T13:18:18.794Z,97521.59
2023-05-19T13:20:51.730Z,97516.25
2023-05-19T13:23:19.734Z,97508.13
2023-05-19T13:25:47.029Z,97505.31
2023-05-19T13:28:14.460Z,97502.16
2023-05-19T13:30:45.327Z,97500.50
2023-05-19T13:33:18.303Z,97490.53
2023-05-19T13:35:45.188Z,97495.88
2023-05-19T13:38:12.204Z,97492.25
2023-05-19T13:40:40.142Z,97490.56
2023-05-19T13:43:12.714Z,97481.41
2023-05-19T13:45:46.483Z,97485.41
2023-05-19T13:48:15.138Z,97481.41
2023-05-19T13:50:42.764Z,97492.53
2023-05-19T13:53:10.192Z,97481.41
2023-05-19T13:55:41.356Z,97481.59
2023-05-19T13:58:15.859Z,97465.59
2023-05-19T14:00:43.060Z,97462.09
2023-05-19T14:03:10.534Z,97459.59
2023-05-19T14:05:37.605Z,97463.25
2023-05-19T14:08:05.868Z,97469.75
2023-05-19T14:10:35.667Z,97473.25
2023-05-19T14:13:30.376Z,97457.75
2023-05-19T14:15:51.630Z,97464.41
2023-05-19T14:18:19.207Z,97464.94
2023-05-19T14:20:46.112Z,97455.38
2023-05-19T14:23:21.369Z,97458.00
2023-05-19T14:25:49.766Z,97454.78
2023-05-19T14:28:18.139Z,97454.91
2023-05-19T14:30:45.345Z,97451.38
2023-05-19T14:33:12.357Z,97443.06
2023-05-19T14:35:39.281Z,97445.06
2023-05-19T14:38:09.762Z,97439.03
2023-05-19T14:40:38.442Z,97443.81
2023-05-19T14:43:05.276Z,97445.25
2023-05-19T14:45:32.099Z,97440.31
2023-05-19T14:47:59.084Z,97432.78
2023-05-19T14:50:27.859Z,97436.75
2023-05-19T14:53:05.904Z,97442.19
2023-05-19T14:55:33.984Z,97441.97
2023-05-19T14:58:00.883Z,97436.69
2023-05-19T15:00:32.090Z,97442.31
2023-05-19T15:02:59.738Z,97436.47
2023-05-19T15:05:26.640Z,97430.81
2023-05-19T15:07:53.566Z,97439.09
2023-05-19T15:10:22.496Z,97444.63
2023-05-19T15:12:53.327Z,97448.59
2023-05-19T15:15:21.099Z,97447.94
2023-05-19T15:17:48.217Z,97438.78
2023-05-19T15:20:15.253Z,97439.44
2023-05-19T15:22:42.305Z,97438.97
2023-05-19T15:25:14.519Z,97424.69
2023-05-19T15:27:42.131Z,97422.56
2023-05-19T15:30:09.323Z,97426.56
2023-05-19T15:32:38.474Z,97420.31
2023-05-19T15:35:06.313Z,97412.47
2023-05-19T15:37:33.151Z,97411.78
2023-05-19T15:39:59.994Z,97415.44
2023-05-19T15:42:26.999Z,97414.00
2023-05-19T15:44:59.004Z,97415.56
2023-05-19T15:47:29.377Z,97420.59
2023-05-19T15:49:56.294Z,97423.97
2023-05-19T15:52:25.137Z,97415.47
2023-05-19T15:54:53.017Z,97419.78
2023-05-19T15:57:51.883Z,97417.25
2023-05-19T16:00:29.468Z,97417.97
2023-05-19T16:02:56.496Z,97416.28
2023-05-19T16:05:25.959Z,97413.25
2023-05-19T16:07:57.456Z,97400.81
2023-05-19T16:10:27.638Z,97411.50
2023-05-19T16:12:58.682Z,97410.34
2023-05-19T16:15:26.826Z,97402.91
2023-05-19T16:17:55.790Z,97404.75
2023-05-19T16:20:27.019Z,97402.47
2023-05-19T16:22:54.572Z,97400.97
2023-05-19T16:25:21.629Z,97395.47
2023-05-19T16:27:52.221Z,97392.97
2023-05-19T16:30:24.193Z,97390.47
2023-05-19T16:32:53.320Z,97388.94
2023-05-19T16:35:23.207Z,97388.47
2023-05-19T16:37:50.035Z,97382.63
2023-05-19T16:40:16.901Z,97382.81
2023-05-19T16:42:43.793Z,97377.66
2023-05-19T16:45:10.754Z,97382.16
2023-05-19T16:47:37.708Z,97371.81
2023-05-19T16:50:04.976Z,97379.00
2023-05-19T16:52:34.659Z,97373.50
2023-05-19T16:55:02.264Z,97369.66
2023-05-19T16:57:29.093Z,97379.31
2023-05-19T16:59:56.653Z,97374.81
2023-05-19T17:02:23.498Z,97372.97
2023-05-19T17:04:50.529Z,97367.66
2023-05-19T17:07:17.905Z,97366.66
2023-05-19T17:09:50.821Z,97366.16
2023-05-19T17:12:18.349Z,97367.31
2023-05-19T17:14:46.284Z,97364.84
2023-05-19T17:17:13.334Z,97366.84
2023-05-19T17:19:42.133Z,97366.00
2023-05-19T17:22:15.990Z,97369.50
2023-05-19T17:24:43.737Z,97366.50
2023-05-19T17:27:10.710Z,97373.50
2023-05-19T17:29:45.281Z,97371.81
2023-05-19T17:32:13.428Z,97373.00
2023-05-19T17:34:40.275Z,97376.50
2023-05-19T17:37:07.049Z,97374.00
2023-05-19T17:39:34.190Z,97381.31
2023-05-19T17:42:03.592Z,97385.81
2023-05-19T17:44:38.340Z,97377.16
2023-05-19T17:47:08.950Z,97378.00
2023-05-19T17:49:38.797Z,97380.50
2023-05-19T17:52:06.828Z,97383.31
2023-05-19T17:54:34.065Z,97380.66
2023-05-19T17:57:06.137Z,97379.00
2023-05-19T17:59:35.585Z,97384.50
2023-05-19T18:02:03.974Z,97382.84
2023-05-19T18:04:31.120Z,97383.84
2023-05-19T18:06:58.935Z,97384.84
2023-05-19T18:09:28.938Z,97384.00
2023-05-19T18:12:06.574Z,97381.34
2023-05-19T18:14:33.689Z,97379.50
2023-05-19T18:17:00.993Z,97385.00
2023-05-19T18:19:29.698Z,97380.69
2023-05-19T18:22:02.312Z,97376.34
2023-05-19T18:24:29.815Z,97380.84
2023-05-19T18:26:56.863Z,97380.84
2023-05-19T18:29:23.694Z,97383.69
2023-05-19T18:31:50.644Z,97379.34
2023-05-19T18:34:19.401Z,97378.50
2023-05-19T18:36:48.043Z,97376.69
2023-05-19T18:39:14.945Z,97373.34
2023-05-19T18:41:43.012Z,97386.84
2023-05-19T18:44:14.077Z,97375.34
2023-05-19T18:46:44.291Z,97384.34
2023-05-19T18:49:13.227Z,97379.22
2023-05-19T18:51:40.279Z,97381.06
2023-05-19T18:54:07.529Z,97384.72
2023-05-19T18:56:50.279Z,97381.06
2023-05-19T18:59:25.250Z,97382.06
2023-05-19T19:01:56.775Z,97386.72
2023-05-19T19:04:23.681Z,97383.06
2023-05-19T19:06:51.575Z,97383.22
2023-05-19T19:09:19.305Z,97390.38
2023-05-19T19:11:48.124Z,97392.22
2023-05-19T19:14:17.230Z,97389.72
2023-05-19T19:16:44.461Z,97388.88
2023-05-19T19:19:11.388Z,97390.72
2023-05-19T19:21:38.364Z,97398.69
2023-05-19T19:24:08.135Z,97401.38
2023-05-19T19:26:35.819Z,97398.88
2023-05-19T19:29:02.641Z,97406.84
2023-05-19T19:31:29.512Z,97405.19
2023-05-19T19:34:00.201Z,97408.84
2023-05-19T19:36:27.786Z,97412.34
2023-05-19T19:38:54.829Z,97409.84
2023-05-19T19:41:21.765Z,97408.03
2023-05-19T19:43:48.603Z,97408.19
2023-05-19T19:46:20.286Z,97412.69
2023-05-19T19:48:48.140Z,97411.84
2023-05-19T19:51:15.095Z,97414.50
2023-05-19T19:53:45.966Z,97417.34
2023-05-19T19:56:16.110Z,97412.84
2023-05-19T19:58:42.934Z,97413.84
2023-05-19T20:01:09.854Z,97416.50
2023-05-19T20:03:40.264Z,97415.69
2023-05-19T20:06:11.206Z,97415.84
2023-05-19T20:08:38.045Z,97405.19
2023-05-19T20:11:05.076Z,97410.50
2023-05-19T20:13:33.930Z,97411.50
2023-05-19T20:16:01.247Z,97410.50
2023-05-19T20:18:30.004Z,97411.50
2023-05-19T20:21:13.296Z,97412.50
2023-05-19T20:23:46.790Z,97410.69
2023-05-19T20:26:17.767Z,97406.53
2023-05-19T20:28:47.442Z,97410.00
2023-05-19T20:31:15.255Z,97408.34
2023-05-19T20:33:42.167Z,97403.84
2023-05-19T20:36:11.149Z,97406.69
2023-05-19T20:38:38.579Z,97405.03
2023-05-19T20:41:12.228Z,97408.69
2023-05-19T20:43:39.235Z,97407.00
2023-05-19T20:46:06.341Z,97400.84
2023-05-19T20:48:35.286Z,97402.69
2023-05-19T20:51:21.268Z,97402.03
2023-05-19T20:53:54.565Z,97401.19
2023-05-19T20:56:22.975Z,97402.03
2023-05-19T20:58:49.801Z,97396.03
2023-05-19T21:01:16.670Z,97398.69
2023-05-19T21:03:43.489Z,97398.69
2023-05-19T21:06:12.474Z,97399.69
2023-05-19T21:08:42.325Z,97401.34
2023-05-19T21:11:09.794Z,97406.84
2023-05-19T21:13:42.499Z,97400.69
2023-05-19T21:16:12.433Z,97405.34
2023-05-19T21:18:42.167Z,97397.34
2023-05-19T21:21:09.874Z,97396.53
2023-05-19T21:23:36.730Z,97398.34
2023-05-19T21:26:04.543Z,97394.84
2023-05-19T21:28:31.458Z,97392.19
2023-05-19T21:30:59.250Z,97401.19
2023-05-19T21:33:26.096Z,97396.84
2023-05-19T21:35:53.059Z,97392.53
2023-05-19T21:38:23.933Z,97386.38
2023-05-19T21:40:51.980Z,97388.19
2023-05-19T21:43:19.676Z,97383.84
2023-05-19T21:45:46.521Z,97385.66
2023-05-19T21:48:13.456Z,97390.16
2023-05-19T21:50:42.248Z,97388.50
2023-05-19T21:53:11.576Z,97399.97
2023-05-19T21:55:39.586Z,97395.66
2023-05-19T21:58:06.479Z,97398.47
2023-05-19T22:00:33.599Z,97396.66
2023-05-19T22:03:00.759Z,97392.31
2023-05-19T22:05:30.040Z,97392.47
2023-05-19T22:07:57.027Z,97395.16
2023-05-19T22:10:24.261Z,97390.81
2023-05-19T22:12:51.136Z,97390.00
2023-05-19T22:15:18.240Z,97384.00
2023-05-19T22:17:45.315Z,97383.00
2023-05-19T22:20:12.852Z,97384.00
2023-05-19T22:22:39.622Z,97382.34
2023-05-19T22:25:07.253Z,97387.66
2023-05-19T22:27:34.071Z,97385.00
2023-05-19T22:30:00.950Z,97372.69
2023-05-19T22:32:27.896Z,97377.34
2023-05-19T22:34:54.858Z,97370.19
2023-05-19T22:37:24.137Z,97371.03
2023-05-19T22:39:51.750Z,97377.34
2023-05-19T22:42:18.858Z,97369.34
2023-05-19T22:44:46.143Z,97363.38
2023-05-19T22:47:14.041Z,97366.84
2023-05-19T22:49:41.769Z,97361.69
2023-05-19T22:52:12.085Z,97369.69
2023-05-19T22:54:39.107Z,97358.38
2023-05-19T22:57:06.706Z,97365.53
2023-05-19T22:59:34.033Z,97361.88
2023-05-19T23:02:01.241Z,97352.38
2023-05-19T23:04:28.105Z,97361.34
2023-05-19T23:06:55.127Z,97353.38
2023-05-19T23:09:22.167Z,97357.03
2023-05-19T23:11:49.080Z,97365.84
2023-05-19T23:14:16.015Z,97362.34
2023-05-19T23:16:42.862Z,97360.69
2023-05-19T23:19:09.743Z,97358.19
2023-05-19T23:21:36.656Z,97343.22
2023-05-19T23:24:03.616Z,97332.59
2023-05-19T23:26:30.532Z,97331.91
2023-05-19T23:28:57.399Z,97334.56
2023-05-19T23:31:24.348Z,97333.75
2023-05-19T23:33:51.260Z,97332.91
2023-05-19T23:36:18.549Z,97336.41
2023-05-19T23:38:45.349Z,97337.41
2023-05-19T23:41:12.331Z,97345.53
2023-05-19T23:43:39.651Z,97343.91
2023-05-19T23:46:06.945Z,97340.44
2023-05-19T23:48:33.987Z,97334.28
2023-05-19T23:51:01.063Z,97335.44
2023-05-19T23:53:28.308Z,97324.78
2023-05-19T23:55:56.433Z,97328.28
2023-05-19T23:58:24.124Z,97327.44
